createdAt,value
2018-09-08T00:02:00.911Z,4.03
2018-09-08T00:04:30.007Z,3.57
2018-09-08T00:07:04.232Z,3.87
2018-09-08T00:09:33.031Z,3.80
2018-09-08T00:12:02.603Z,3.83
2018-09-08T00:14:31.504Z,4.20
2018-09-08T00:17:05.476Z,3.90
2018-09-08T00:19:39.729Z,3.87
2018-09-08T00:22:13.733Z,4.23
2018-09-08T00:24:47.961Z,3.77
2018-09-08T00:27:21.205Z,3.57
2018-09-08T00:29:51.160Z,4.40
2018-09-08T00:32:21.348Z,3.80
2018-09-08T00:34:50.786Z,3.80
2018-09-08T00:37:19.792Z,3.97
2018-09-08T00:39:51.807Z,3.23
2018-09-08T00:42:20.904Z,3.27
2018-09-08T00:44:49.742Z,4.17
2018-09-08T00:47:18.792Z,3.77
2018-09-08T00:49:47.681Z,3.70
2018-09-08T00:52:16.608Z,4.20
2018-09-08T00:54:45.508Z,4.00
2018-09-08T00:57:14.455Z,3.90
2018-09-08T00:59:43.292Z,4.27
2018-09-08T01:02:12.378Z,3.97
2018-09-08T01:04:41.677Z,3.20
2018-09-08T01:07:16.097Z,3.30
2018-09-08T01:09:44.872Z,3.93
2018-09-08T01:12:13.983Z,3.97
2018-09-08T01:14:42.741Z,3.90
2018-09-08T01:17:11.601Z,3.50
2018-09-08T01:19:40.448Z,3.73
2018-09-08T01:22:09.307Z,3.80
2018-09-08T01:24:38.224Z,3.37
2018-09-08T01:27:07.152Z,3.40
2018-09-08T01:29:36.388Z,3.70
2018-09-08T01:32:05.323Z,4.40
2018-09-08T01:34:34.646Z,3.73
2018-09-08T01:37:03.364Z,3.63
2018-09-08T01:39:32.712Z,3.50
2018-09-08T01:42:01.791Z,3.30
2018-09-08T01:44:30.660Z,3.63
2018-09-08T01:46:59.780Z,4.00
2018-09-08T01:49:28.676Z,4.30
2018-09-08T01:51:57.532Z,3.53
2018-09-08T01:54:26.668Z,3.77
2018-09-08T01:56:55.476Z,3.87
2018-09-08T01:59:24.385Z,3.73
2018-09-08T02:01:53.752Z,3.60
2018-09-08T02:04:22.947Z,4.37
2018-09-08T02:06:52.145Z,4.03
2018-09-08T02:09:21.268Z,3.50
2018-09-08T02:11:50.076Z,4.33
2018-09-08T02:14:19.185Z,3.93
2018-09-08T02:16:48.415Z,3.33
2018-09-08T02:19:17.256Z,3.63
2018-09-08T02:21:46.041Z,3.40
2018-09-08T02:24:14.985Z,3.73
2018-09-08T02:26:43.872Z,3.53
2018-09-08T02:29:12.765Z,3.50
2018-09-08T02:31:41.666Z,3.37
2018-09-08T02:34:10.544Z,4.00
2018-09-08T02:36:39.687Z,3.60
2018-09-08T02:39:10.031Z,4.33
2018-09-08T02:41:39.124Z,4.00
2018-09-08T02:44:08.034Z,4.20
2018-09-08T02:46:37.059Z,3.70
2018-09-08T02:49:06.255Z,3.93
2018-09-08T02:51:33.808Z,3.73
2018-09-08T02:54:01.375Z,4.50
2018-09-08T02:56:29.140Z,4.00
2018-09-08T02:58:56.802Z,4.40
2018-09-08T03:01:24.417Z,4.47
2018-09-08T03:03:52.043Z,4.10
2018-09-08T03:06:20.191Z,4.33
2018-09-08T03:08:47.859Z,4.50
2018-09-08T03:11:15.546Z,4.37
2018-09-08T03:13:43.387Z,4.67
2018-09-08T03:16:11.228Z,4.97
2018-09-08T03:18:38.907Z,4.53
2018-09-08T03:21:06.708Z,4.70
2018-09-08T03:23:34.444Z,4.43
2018-09-08T03:26:02.102Z,4.47
2018-09-08T03:28:30.176Z,4.13
2018-09-08T03:30:57.828Z,4.40
2018-09-08T03:33:25.502Z,4.13
2018-09-08T03:35:53.112Z,5.27
2018-09-08T03:38:20.732Z,4.60
2018-09-08T03:40:48.488Z,4.87
2018-09-08T03:43:16.052Z,4.80
2018-09-08T03:45:43.560Z,4.27
2018-09-08T03:48:11.180Z,5.10
2018-09-08T03:50:38.684Z,4.87
2018-09-08T03:53:06.305Z,5.00
2018-09-08T03:55:33.812Z,5.00
2018-09-08T03:58:01.492Z,4.67
2018-09-08T04:06:21.640Z,4.47
2018-09-08T04:08:50.514Z,4.63
2018-09-08T04:11:19.636Z,4.50
2018-09-08T04:13:48.700Z,4.37
2018-09-08T04:16:17.516Z,4.43
2018-09-08T04:18:46.144Z,4.63
2018-09-08T04:21:14.917Z,5.00
2018-09-08T04:23:43.813Z,5.00
2018-09-08T04:26:12.844Z,4.80
2018-09-08T04:28:41.639Z,4.60
2018-09-08T04:31:10.563Z,4.90
2018-09-08T04:33:39.426Z,4.80
2018-09-08T04:36:08.234Z,4.93
2018-09-08T04:38:37.155Z,4.60
2018-09-08T04:41:06.357Z,5.10
2018-09-08T04:43:35.072Z,5.53
2018-09-08T04:46:03.917Z,5.00
2018-09-08T04:48:32.754Z,5.03
2018-09-08T04:51:01.581Z,5.03
2018-09-08T04:53:30.840Z,5.47
2018-09-08T04:55:59.944Z,5.30
2018-09-08T04:58:29.040Z,5.20
2018-09-08T05:00:57.941Z,5.60
2018-09-08T05:03:27.212Z,5.40
2018-09-08T05:05:56.272Z,5.80
2018-09-08T05:08:25.588Z,6.20
2018-09-08T05:10:54.517Z,5.13
2018-09-08T05:13:23.413Z,5.37
2018-09-08T05:15:52.509Z,6.33
2018-09-08T05:18:21.816Z,5.33
2018-09-08T05:20:57.516Z,5.67
2018-09-08T05:23:29.454Z,5.40
2018-09-08T05:25:58.680Z,5.20
2018-09-08T05:28:27.554Z,5.30
2018-09-08T05:30:56.906Z,5.43
2018-09-08T05:33:26.281Z,5.27
2018-09-08T05:35:55.731Z,5.67
2018-09-08T05:38:24.599Z,6.60
2018-09-08T05:40:53.708Z,5.63
2018-09-08T05:43:23.518Z,6.10
2018-09-08T05:45:52.562Z,6.33
2018-09-08T05:48:21.727Z,6.57
2018-09-08T05:50:50.619Z,5.70
2018-09-08T05:53:19.578Z,6.33
2018-09-08T05:55:49.762Z,5.60
2018-09-08T05:58:18.826Z,5.87
2018-09-08T06:00:47.721Z,5.03
2018-09-08T06:03:16.744Z,6.40
2018-09-08T06:05:45.624Z,7.20
2018-09-08T06:08:14.454Z,7.30
2018-09-08T06:10:43.223Z,6.43
2018-09-08T06:13:12.156Z,6.33
2018-09-08T06:15:41.013Z,6.50
2018-09-08T06:18:10.350Z,5.93
2018-09-08T06:20:39.164Z,6.40
2018-09-08T06:23:08.130Z,5.70
2018-09-08T06:25:37.048Z,5.07
2018-09-08T06:28:06.102Z,5.70
2018-09-08T06:30:34.975Z,5.40
2018-09-08T06:33:03.857Z,5.43
2018-09-08T06:35:32.704Z,4.87
2018-09-08T06:38:01.676Z,5.10
2018-09-08T06:40:30.462Z,5.43
2018-09-08T06:42:59.258Z,5.47
2018-09-08T06:45:28.127Z,5.80
2018-09-08T06:47:57.215Z,5.33
2018-09-08T06:50:26.429Z,5.23
2018-09-08T06:52:55.183Z,4.53
2018-09-08T06:55:23.975Z,4.73
2018-09-08T06:57:52.940Z,4.20
2018-09-08T07:00:21.782Z,4.27
2018-09-08T07:02:50.671Z,4.67
2018-09-08T07:05:19.595Z,4.30
2018-09-08T07:07:48.414Z,4.00
2018-09-08T07:10:17.355Z,3.70
2018-09-08T07:12:46.246Z,3.80
2018-09-08T07:15:15.181Z,3.43
2018-09-08T07:17:43.982Z,3.80
2018-09-08T07:20:12.848Z,3.50
2018-09-08T07:22:41.693Z,3.40
2018-09-08T07:25:11.161Z,3.33
2018-09-08T07:27:40.003Z,2.70
2018-09-08T07:30:08.854Z,2.07
2018-09-08T07:32:37.941Z,2.40
2018-09-08T07:35:06.893Z,2.27
2018-09-08T07:37:35.935Z,2.07
2018-09-08T07:40:05.477Z,2.07
2018-09-08T07:42:34.426Z,2.13
2018-09-08T07:45:03.464Z,2.67
2018-09-08T07:47:32.290Z,1.77
2018-09-08T07:50:01.233Z,1.53
2018-09-08T07:52:30.052Z,1.63
2018-09-08T07:54:59.216Z,1.60
2018-09-08T07:57:28.041Z,1.60
2018-09-08T07:59:56.802Z,1.40
2018-09-08T08:02:25.755Z,2.30
2018-09-08T08:04:54.452Z,1.70
2018-09-08T08:07:23.206Z,1.47
2018-09-08T08:09:52.065Z,1.50
2018-09-08T08:12:21.316Z,1.60
2018-09-08T08:14:50.078Z,1.60
2018-09-08T08:17:18.825Z,1.70
2018-09-08T08:19:47.943Z,1.80
2018-09-08T08:22:17.030Z,1.77
2018-09-08T08:24:46.338Z,1.83
2018-09-08T08:27:15.191Z,2.10
2018-09-08T08:29:44.020Z,1.67
2018-09-08T08:32:12.730Z,1.87
2018-09-08T08:34:41.686Z,1.93
2018-09-08T08:37:10.612Z,1.83
2018-09-08T08:39:39.467Z,1.97
2018-09-08T08:42:09.561Z,2.10
2018-09-08T08:44:38.681Z,1.50
2018-09-08T08:47:07.497Z,2.10
2018-09-08T08:49:36.361Z,1.87
2018-09-08T08:52:16.157Z,1.80
2018-09-08T08:54:48.011Z,1.80
2018-09-08T08:57:17.160Z,2.50
2018-09-08T08:59:45.852Z,1.90
2018-09-08T09:02:14.834Z,1.87
2018-09-08T09:04:43.735Z,2.13
2018-09-08T09:07:14.235Z,1.83
2018-09-08T09:09:43.909Z,1.83
2018-09-08T09:12:12.864Z,1.90
2018-09-08T09:14:41.659Z,1.70
2018-09-08T09:17:10.632Z,1.70
2018-09-08T09:19:50.659Z,1.87
2018-09-08T09:22:30.773Z,2.03
2018-09-08T09:25:08.849Z,1.87
2018-09-08T09:27:46.707Z,2.03
2018-09-08T09:30:16.311Z,2.40
2018-09-08T09:32:45.725Z,1.70
2018-09-08T09:35:16.945Z,1.70
2018-09-08T09:37:45.689Z,2.00
2018-09-08T09:40:15.558Z,1.77
2018-09-08T09:42:44.711Z,1.70
2018-09-08T09:45:13.755Z,2.63
2018-09-08T09:47:42.592Z,2.10
2018-09-08T09:50:12.658Z,1.40
2018-09-08T09:52:41.846Z,1.33
2018-09-08T09:55:11.299Z,1.70
2018-09-08T09:57:40.236Z,1.83
2018-09-08T10:00:11.497Z,1.40
2018-09-08T10:02:41.160Z,1.60
2018-09-08T10:05:12.996Z,1.60
2018-09-08T10:07:42.055Z,1.30
2018-09-08T10:10:15.217Z,1.83
2018-09-08T10:12:44.298Z,1.60
2018-09-08T10:15:13.107Z,2.33
2018-09-08T10:17:48.618Z,1.80
2018-09-08T10:20:20.335Z,1.93
2018-09-08T10:22:49.180Z,1.70
2018-09-08T10:25:19.870Z,2.20
2018-09-08T10:27:49.272Z,1.67
2018-09-08T10:30:18.553Z,1.87
2018-09-08T10:32:47.864Z,2.30
2018-09-08T10:35:16.871Z,1.70
2018-09-08T10:37:45.780Z,2.03
2018-09-08T10:40:14.840Z,2.20
2018-09-08T10:42:44.257Z,1.63
2018-09-08T10:45:13.198Z,1.77
2018-09-08T10:47:42.280Z,1.80
2018-09-08T10:50:11.711Z,1.53
2018-09-08T10:52:44.836Z,1.60
2018-09-08T10:55:13.523Z,1.67
2018-09-08T10:57:42.547Z,1.80
2018-09-08T11:00:12.463Z,1.57
2018-09-08T11:02:41.678Z,1.63
2018-09-08T11:05:10.423Z,1.53
2018-09-08T11:07:39.747Z,1.40
2018-09-08T11:10:08.789Z,1.23
2018-09-08T11:12:37.781Z,1.50
2018-09-08T11:15:08.155Z,1.50
2018-09-08T11:17:36.877Z,1.27
2018-09-08T11:20:06.901Z,1.47
2018-09-08T11:22:36.175Z,1.20
2018-09-08T11:25:04.880Z,1.13
2018-09-08T11:27:33.682Z,1.50
2018-09-08T11:30:04.389Z,1.30
2018-09-08T11:32:34.816Z,1.20
2018-09-08T11:35:05.796Z,1.20
2018-09-08T11:37:34.785Z,1.20
2018-09-08T11:40:03.662Z,1.50
2018-09-08T11:42:36.189Z,1.30
2018-09-08T11:45:05.430Z,1.00
2018-09-08T11:47:34.079Z,1.63
2018-09-08T11:50:03.181Z,1.30
2018-09-08T11:52:32.513Z,1.10
2018-09-08T11:55:01.831Z,1.10
2018-09-08T11:57:31.282Z,1.17
2018-09-08T12:00:00.147Z,1.37
2018-09-08T12:02:29.078Z,1.10
2018-09-08T12:04:58.127Z,1.00
2018-09-08T12:07:27.144Z,1.10
2018-09-08T12:09:55.853Z,1.20
2018-09-08T12:12:24.879Z,0.87
2018-09-08T12:14:54.315Z,1.80
2018-09-08T12:17:24.032Z,1.00
2018-09-08T12:19:52.946Z,1.20
2018-09-08T12:22:22.032Z,1.20
2018-09-08T12:24:50.924Z,1.13
2018-09-08T12:27:19.811Z,1.00
2018-09-08T12:29:48.704Z,0.97
2018-09-08T12:32:17.572Z,1.30
2018-09-08T12:34:46.487Z,1.10
2018-09-08T12:37:15.927Z,1.10
2018-09-08T12:39:45.078Z,1.33
2018-09-08T12:42:14.919Z,1.00
2018-09-08T12:44:43.868Z,1.00
2018-09-08T12:47:12.978Z,1.03
2018-09-08T12:49:42.094Z,1.30
2018-09-08T12:52:10.987Z,0.80
2018-09-08T12:54:39.868Z,1.07
2018-09-08T12:57:09.142Z,1.07
2018-09-08T12:59:38.256Z,0.97
2018-09-08T13:02:07.320Z,1.00
2018-09-08T13:04:36.848Z,1.10
2018-09-08T13:07:05.935Z,0.90
2018-09-08T13:09:34.743Z,1.60
2018-09-08T13:12:03.749Z,1.90
2018-09-08T13:14:32.996Z,1.20
2018-09-08T13:17:05.972Z,1.13
2018-09-08T13:19:48.032Z,1.20
2018-09-08T13:22:21.831Z,0.80
2018-09-08T13:24:51.321Z,0.80
2018-09-08T13:27:20.238Z,1.20
2018-09-08T13:30:01.694Z,0.93
2018-09-08T13:32:33.368Z,0.97
2018-09-08T13:35:03.247Z,0.90
2018-09-08T13:37:32.489Z,0.90
2018-09-08T13:40:02.022Z,1.20
2018-09-08T13:42:30.736Z,1.23
2018-09-08T13:44:59.573Z,0.90
2018-09-08T13:47:28.614Z,0.93
2018-09-08T13:49:57.711Z,1.10
2018-09-08T13:52:26.730Z,1.20
2018-09-08T13:54:55.672Z,1.70
2018-09-08T13:57:24.641Z,1.60
2018-09-08T13:59:53.399Z,1.23
2018-09-08T14:02:22.321Z,1.53
2018-09-08T14:04:51.197Z,1.50
2018-09-08T14:07:20.921Z,1.40
2018-09-08T14:09:50.016Z,1.20
2018-09-08T14:12:18.792Z,1.60
2018-09-08T14:14:47.588Z,1.50
2018-09-08T14:17:16.467Z,1.50
2018-09-08T14:19:45.360Z,2.30
2018-09-08T14:22:14.253Z,1.60
2018-09-08T14:24:43.153Z,1.23
2018-09-08T14:27:12.443Z,1.97
2018-09-08T14:29:41.168Z,1.33
2018-09-08T14:32:10.263Z,1.50
2018-09-08T14:34:39.054Z,1.30
2018-09-08T14:37:07.968Z,1.67
2018-09-08T14:39:37.304Z,1.53
2018-09-08T14:42:06.416Z,1.30
2018-09-08T14:44:35.170Z,1.47
2018-09-08T14:47:03.936Z,1.30
2018-09-08T14:49:32.927Z,1.40
2018-09-08T14:52:01.939Z,1.90
2018-09-08T14:54:30.713Z,1.60
2018-09-08T14:57:00.031Z,1.23
2018-09-08T14:59:28.854Z,1.83
2018-09-08T15:01:57.833Z,1.30
2018-09-08T15:04:33.304Z,1.70
2018-09-08T15:07:02.249Z,1.83
2018-09-08T15:09:31.264Z,2.40
2018-09-08T15:12:00.155Z,1.20
2018-09-08T15:14:28.931Z,1.43
2018-09-08T15:16:58.360Z,1.17
2018-09-08T15:19:27.174Z,1.50
2018-09-08T15:21:56.128Z,1.43
2018-09-08T15:24:25.271Z,1.60
2018-09-08T15:26:54.286Z,1.63
2018-09-08T15:29:23.361Z,1.30
2018-09-08T15:31:52.213Z,1.43
2018-09-08T15:34:21.092Z,1.43
2018-09-08T15:36:53.448Z,1.60
2018-09-08T15:39:24.425Z,1.37
2018-09-08T15:41:54.961Z,1.83
2018-09-08T15:44:24.447Z,1.60
2018-09-08T15:46:54.063Z,1.70
2018-09-08T15:49:23.619Z,1.27
2018-09-08T15:51:53.788Z,1.57
2018-09-08T15:54:22.732Z,1.27
2018-09-08T15:56:51.721Z,1.80
2018-09-08T15:59:20.637Z,1.67
2018-09-08T16:01:49.963Z,1.30
2018-09-08T16:04:21.768Z,1.83
2018-09-08T16:06:50.545Z,1.63
2018-09-08T16:09:19.371Z,1.63
2018-09-08T16:11:48.284Z,1.70
2018-09-08T16:14:17.226Z,2.10
2018-09-08T16:16:46.244Z,9.40
2018-09-08T16:19:15.434Z,1.73
2018-09-08T16:21:44.363Z,1.60
2018-09-08T16:24:13.635Z,1.43
2018-09-08T16:26:42.535Z,1.30
2018-09-08T16:29:11.658Z,1.83
2018-09-08T16:31:41.113Z,1.83
2018-09-08T16:34:10.420Z,1.53
2018-09-08T16:36:39.376Z,1.80
2018-09-08T16:39:10.516Z,1.80
2018-09-08T16:41:39.432Z,1.40
2018-09-08T16:44:08.930Z,1.40
2018-09-08T16:46:37.654Z,1.70
2018-09-08T16:49:06.808Z,1.63
2018-09-08T16:51:36.379Z,1.50
2018-09-08T16:54:05.272Z,1.70
2018-09-08T16:56:34.131Z,1.60
2018-09-08T16:59:02.999Z,1.60
2018-09-08T17:01:31.860Z,1.87
2018-09-08T17:04:00.832Z,1.40
2018-09-08T17:06:29.709Z,1.40
2018-09-08T17:08:58.387Z,1.63
2018-09-08T17:11:27.232Z,1.73
2018-09-08T17:13:55.984Z,2.03
2018-09-08T17:16:25.286Z,2.20
2018-09-08T17:18:54.160Z,1.90
2018-09-08T17:21:23.255Z,1.67
2018-09-08T17:23:52.160Z,1.60
2018-09-08T17:26:21.069Z,2.00
2018-09-08T17:28:49.877Z,2.03
2018-09-08T17:31:18.817Z,2.40
2018-09-08T17:33:47.800Z,2.53
2018-09-08T17:36:16.736Z,2.27
2018-09-08T17:38:45.659Z,2.03
2018-09-08T17:41:14.581Z,2.10
2018-09-08T17:43:43.491Z,2.13
2018-09-08T17:46:12.381Z,2.50
2018-09-08T17:48:41.258Z,2.33
2018-09-08T17:51:10.069Z,2.40
2018-09-08T17:53:38.985Z,2.07
2018-09-08T17:56:08.288Z,2.10
2018-09-08T17:58:37.234Z,3.20
2018-09-08T18:01:06.381Z,2.20
2018-09-08T18:03:35.106Z,2.50
2018-09-08T18:06:03.936Z,2.73
2018-09-08T18:08:32.672Z,2.07
2018-09-08T18:11:01.483Z,2.27
2018-09-08T18:13:30.295Z,3.20
2018-09-08T18:15:59.718Z,2.90
2018-09-08T18:18:28.725Z,2.97
2018-09-08T18:20:57.595Z,3.53
2018-09-08T18:23:26.969Z,3.87
2018-09-08T18:25:56.052Z,2.67
2018-09-08T18:28:26.462Z,3.90
2018-09-08T18:30:58.239Z,3.90
2018-09-08T18:33:28.348Z,3.90
2018-09-08T18:36:00.046Z,3.97
2018-09-08T18:38:42.347Z,4.37
2018-09-08T18:41:16.124Z,4.50
2018-09-08T18:43:46.257Z,4.60
2018-09-08T18:46:16.480Z,4.60
2018-09-08T18:48:45.400Z,4.37
2018-09-08T18:51:14.700Z,5.50
2018-09-08T18:53:43.464Z,7.00
2018-09-08T18:56:12.288Z,6.30
2018-09-08T18:58:41.339Z,7.90
2018-09-08T19:01:10.222Z,7.80
2018-09-08T19:03:39.111Z,5.63
2018-09-08T19:06:07.971Z,5.20
2018-09-08T19:08:44.068Z,4.47
2018-09-08T19:11:14.045Z,5.53
2018-09-08T19:13:43.692Z,6.17
2018-09-08T19:16:13.813Z,5.37
2018-09-08T19:18:42.552Z,5.57
2018-09-08T19:21:12.221Z,6.23
2018-09-08T19:23:41.108Z,6.40
2018-09-08T19:26:10.188Z,6.67
2018-09-08T19:28:39.062Z,6.33
2018-09-08T19:31:08.182Z,9.20
2018-09-08T19:33:37.678Z,8.13
2018-09-08T19:36:07.298Z,10.83
2018-09-08T19:38:37.564Z,9.83
2018-09-08T19:41:06.517Z,9.37
2018-09-08T19:43:35.281Z,8.80
2018-09-08T19:46:08.136Z,8.20
2018-09-08T19:48:36.891Z,8.43
2018-09-08T19:51:06.221Z,7.60
2018-09-08T19:53:40.300Z,8.03
2018-09-08T19:56:09.040Z,7.57
2018-09-08T19:58:42.979Z,6.93
2018-09-08T20:01:11.916Z,6.63
2018-09-08T20:03:40.924Z,6.40
2018-09-08T20:06:09.638Z,6.80
2018-09-08T20:08:38.256Z,6.90
2018-09-08T20:11:11.023Z,7.10
2018-09-08T20:13:43.671Z,7.03
2018-09-08T20:16:12.369Z,7.17
2018-09-08T20:18:41.056Z,7.00
2018-09-08T20:21:09.817Z,6.57
2018-09-08T20:23:38.455Z,7.30
2018-09-08T20:26:07.941Z,6.47
2018-09-08T20:28:37.132Z,6.43
2018-09-08T20:31:06.223Z,6.43
2018-09-08T20:33:36.151Z,5.97
2018-09-08T20:36:05.560Z,6.33
2018-09-08T20:38:34.495Z,6.20
2018-09-08T20:41:03.454Z,7.00
2018-09-08T20:43:32.304Z,6.27
2018-09-08T20:46:01.835Z,6.47
2018-09-08T20:48:30.722Z,6.63
2018-09-08T20:50:59.532Z,6.80
2018-09-08T20:53:28.711Z,7.27
2018-09-08T20:55:57.600Z,6.97
2018-09-08T20:58:26.690Z,6.90
2018-09-08T21:00:55.781Z,7.40
2018-09-08T21:03:24.684Z,7.20
2018-09-08T21:05:53.814Z,7.60
2018-09-08T21:08:22.671Z,7.90
2018-09-08T21:10:51.483Z,7.67
2018-09-08T21:13:20.336Z,7.80
2018-09-08T21:15:49.343Z,7.43
2018-09-08T21:18:18.148Z,7.57
2018-09-08T21:20:46.915Z,7.33
2018-09-08T21:23:15.670Z,6.97
2018-09-08T21:25:45.109Z,7.17
2018-09-08T21:28:13.987Z,7.47
2018-09-08T21:30:43.049Z,7.60
2018-09-08T21:33:11.877Z,8.50
2018-09-08T21:35:40.592Z,8.03
2018-09-08T21:38:09.563Z,7.67
2018-09-08T21:40:38.448Z,9.00
2018-09-08T21:43:07.337Z,7.57
2018-09-08T21:45:36.400Z,8.87
2018-09-08T21:48:05.257Z,8.40
2018-09-08T21:50:34.012Z,8.00
2018-09-08T21:53:02.897Z,8.70
2018-09-08T21:55:31.897Z,8.10
2018-09-08T21:58:00.588Z,8.67
2018-09-08T22:00:29.361Z,7.90
2018-09-08T22:02:58.304Z,8.80
2018-09-08T22:05:27.291Z,9.23
2018-09-08T22:07:55.987Z,8.80
2018-09-08T22:10:25.598Z,7.90
2018-09-08T22:12:54.428Z,9.47
2018-09-08T22:15:23.798Z,8.83
2018-09-08T22:17:52.610Z,9.30
2018-09-08T22:20:21.410Z,9.90
2018-09-08T22:22:50.285Z,10.20
2018-09-08T22:25:19.014Z,9.43
2018-09-08T22:27:47.824Z,9.03
2018-09-08T22:30:16.874Z,9.70
2018-09-08T22:32:45.981Z,9.67
2018-09-08T22:35:15.072Z,10.30
2018-09-08T22:37:43.832Z,8.60
2018-09-08T22:40:12.645Z,9.40
2018-09-08T22:42:41.495Z,9.80
2018-09-08T22:45:10.423Z,9.13
2018-09-08T22:47:39.145Z,9.00
2018-09-08T22:50:07.967Z,10.30
2018-09-08T22:52:37.101Z,9.33
2018-09-08T22:55:06.045Z,9.80
2018-09-08T22:57:34.732Z,8.97
2018-09-08T23:00:03.734Z,10.73
2018-09-08T23:02:32.665Z,9.57
2018-09-08T23:05:01.424Z,9.67
2018-09-08T23:07:30.509Z,9.50
2018-09-08T23:09:59.247Z,10.30
2018-09-08T23:12:28.258Z,9.17
2018-09-08T23:14:57.119Z,9.77
2018-09-08T23:17:26.593Z,9.27
2018-09-08T23:19:55.613Z,10.30
2018-09-08T23:22:25.004Z,9.33
2018-09-08T23:24:53.810Z,10.57
2018-09-08T23:27:22.558Z,9.50
2018-09-08T23:29:51.336Z,9.50
2018-09-08T23:32:20.631Z,9.93
2018-09-08T23:34:49.473Z,10.40
2018-09-08T23:37:18.561Z,9.97
2018-09-08T23:39:47.651Z,9.87
2018-09-08T23:42:16.749Z,9.83
2018-09-08T23:44:45.491Z,9.33
2018-09-08T23:47:14.540Z,9.40
2018-09-08T23:49:43.187Z,9.87
2018-09-08T23:52:12.072Z,9.37
2018-09-08T23:54:41.561Z,9.90
2018-09-08T23:57:10.851Z,10.57
